HU-0045 weather

Bácsbokod Border Police Heliport
Bács-Kiskun, Hungary

Public forecast

Using degrees Celsius for public forecast. Weather courtesy of forecast.io.

METAR (pilot weather report)

Report is more than 2 hours old.

Closest report is Pécs-Pogány Airport, 38.8 nm (71.9 km) W. Retrieved 2019/06/20 16:45 UTC (4 hours ago):

LHPP 201645Z 11005KT 9999 FEW030CB 27/20 Q1012

TAF (pilot weather forecast)

Forecast is more than 12 hours old.

Closest forecast is Pécs-Pogány Airport, 38.8 nm (71.9 km) W. Retrieved 2017/08/21 15:50 UTC (2 years ago):

TAF LHPP 211700Z 2115/2214 CNL